Time;durP1;ratioP1;P1;durP2;ratioP2;P2;SDS_P1;SDS_P2;PMS_P1;PMS_P2;Temp;Humidity;BMP_temperature;BMP_pressure;BME280_temperature;BME280_humidity;BME280_pressure;Samples;Min_cycle;Max_cycle;Signal;HPM_P1;HPM_P2
2022/08/16 00:00:32;;;;;;;19.25;17.27;;;;;;;21.85;86.46;99628.84;1634002;88;25677;-77
2022/08/16 00:03:01;;;;;;;19.25;17.27;;;;;;;21.83;86.47;99627.86;1634210;88;25204;-78
2022/08/16 00:05:29;;;;;;;19.25;17.07;;;;;;;21.83;86.48;99635.34;1634107;88;27380;-77
2022/08/16 00:07:57;;;;;;;19.23;17.32;;;;;;;21.82;86.55;99635.14;1633974;88;25258;-77
2022/08/16 00:10:27;;;;;;;19.20;17.30;;;;;;;21.81;86.85;99631.61;1634317;88;25211;-77
2022/08/16 00:12:54;;;;;;;23.35;17.17;;;;;;;21.81;86.85;99631.61;1634082;88;25601;-77
2022/08/16 00:15:25;;;;;;;19.45;17.32;;;;;;;21.78;86.68;99626.13;1633990;88;25410;-77
2022/08/16 00:17:52;;;;;;;20.43;16.60;;;;;;;21.77;86.69;99623.95;1633090;88;27382;-77
2022/08/16 00:20:20;;;;;;;23.05;17.10;;;;;;;21.75;86.77;99619.45;1634121;88;25263;-77
2022/08/16 00:22:47;;;;;;;21.27;17.77;;;;;;;21.75;86.68;99627.70;1634163;88;25178;-77
2022/08/16 00:25:17;;;;;;;18.95;17.05;;;;;;;21.74;86.93;99630.84;1634047;88;25619;-77
2022/08/16 00:27:43;;;;;;;19.07;17.17;;;;;;;21.73;86.90;99630.67;1607692;88;25601;-77
2022/08/16 00:30:13;;;;;;;18.25;16.45;;;;;;;21.71;86.77;99631.64;1631310;88;27430;-76
2022/08/16 00:32:42;;;;;;;19.17;16.52;;;;;;;21.70;86.93;99637.75;1631231;88;25720;-78
2022/08/16 00:35:14;;;;;;;19.80;17.32;;;;;;;21.68;86.96;99633.25;1631316;88;25418;-77
2022/08/16 00:37:40;;;;;;;18.95;16.32;;;;;;;21.67;87.00;99638.55;1631297;88;25640;-76
2022/08/16 00:40:09;;;;;;;22.62;17.35;;;;;;;21.66;87.14;99638.95;1631269;88;25539;-76
2022/08/16 00:42:35;;;;;;;19.17;17.17;;;;;;;21.64;87.13;99631.12;1631482;88;27337;-75
2022/08/16 00:45:13;;;;;;;18.55;16.52;;;;;;;21.63;86.98;99632.29;1631205;88;25724;-76
2022/08/16 00:47:44;;;;;;;19.57;16.52;;;;;;;21.62;87.25;99640.34;1631059;87;25810;-76
2022/08/16 00:50:12;;;;;;;21.70;17.70;;;;;;;21.59;87.46;99637.81;1631236;88;25628;-76
2022/08/16 00:52:40;;;;;;;19.05;16.40;;;;;;;21.57;87.28;99632.50;1631343;88;25631;-76
2022/08/16 00:55:07;;;;;;;21.48;16.90;;;;;;;21.54;87.41;99628.59;1631193;88;27384;-76
2022/08/16 00:57:35;;;;;;;19.60;16.27;;;;;;;21.52;87.32;99635.09;1631220;88;25716;-76
2022/08/16 01:00:05;;;;;;;21.35;17.12;;;;;;;21.51;87.53;99637.64;1631291;88;25669;-76
2022/08/16 01:02:31;;;;;;;22.82;16.97;;;;;;;21.51;87.52;99637.64;1631247;88;25713;-76
2022/08/16 01:04:57;;;;;;;19.40;17.17;;;;;;;21.49;87.41;99631.77;1631317;88;25429;-76
2022/08/16 01:07:24;;;;;;;18.05;16.20;;;;;;;21.48;87.77;99631.55;1631294;88;27946;-76
2022/08/16 01:09:51;;;;;;;18.65;16.70;;;;;;;21.47;87.74;99630.01;1626904;87;25449;-76
2022/08/16 01:12:18;;;;;;;18.82;16.85;;;;;;;21.47;87.74;99631.95;1631298;88;25445;-76
2022/08/16 01:14:49;;;;;;;20.08;17.87;;;;;;;21.46;87.68;99633.90;1631241;88;25647;-76
2022/08/16 01:17:18;;;;;;;19.42;16.90;;;;;;;21.45;87.77;99628.19;1631293;87;25497;-76
2022/08/16 01:19:47;;;;;;;;;;;;;;;21.44;87.76;99623.89;1633722;88;27398;-75
2022/08/16 01:23:03;;;;;;;19.40;17.42;;;;;;;21.43;87.97;99629.19;1631358;88;25489;-75
2022/08/16 01:25:34;;;;;;;18.35;16.42;;;;;;;21.40;87.72;99620.35;1631324;88;25720;-76
2022/08/16 01:28:06;;;;;;;19.62;17.52;;;;;;;21.37;88.07;99619.80;1631225;88;26312;-76
2022/08/16 01:30:39;;;;;;;17.37;15.78;;;;;;;21.36;88.26;99625.88;1606505;88;25563;-76
2022/08/16 01:33:08;;;;;;;20.20;15.88;;;;;;;21.35;88.08;99622.14;1631342;88;27471;-76
2022/08/16 01:36:06;;;;;;;20.05;16.75;;;;;;;21.32;87.91;99610.55;1631360;88;25675;-75
2022/08/16 01:38:36;;;;;;;18.67;16.73;;;;;;;21.31;88.40;99615.28;1631292;88;25704;-75
2022/08/16 01:41:17;;;;;;;20.02;17.73;;;;;;;21.29;88.37;99616.27;1631254;88;25678;-76
2022/08/16 01:43:45;;;;;;;20.55;17.45;;;;;;;21.29;88.46;99608.62;1631320;88;25416;-76
2022/08/16 01:46:24;;;;;;;24.43;17.67;;;;;;;;;;1631261;88;27308;-76
2022/08/16 01:49:05;;;;;;;21.25;17.52;;;;;;;21.23;88.88;99603.53;1631280;87;25429;-76
2022/08/16 01:51:32;;;;;;;18.32;16.45;;;;;;;21.20;88.86;99593.92;1631290;88;25425;-76
2022/08/16 01:53:58;;;;;;;19.95;17.20;;;;;;;21.17;88.91;99601.59;1631228;88;25667;-76
2022/08/16 01:56:27;;;;;;;18.73;16.82;;;;;;;21.14;88.98;99596.28;1631212;88;25638;-75
2022/08/16 01:58:56;;;;;;;23.85;17.45;;;;;;;21.12;88.91;99597.27;1631337;88;28017;-76
2022/08/16 02:01:23;;;;;;;20.15;18.05;;;;;;;21.08;88.93;99601.41;1631412;88;30343;-76
2022/08/16 02:03:50;;;;;;;19.98;17.32;;;;;;;21.06;88.76;99596.91;1631302;88;25664;-77
2022/08/16 02:06:17;;;;;;;18.75;16.80;;;;;;;21.03;88.76;99601.82;1631224;88;25578;-75
2022/08/16 02:08:43;;;;;;;19.10;16.97;;;;;;;21.00;88.98;99597.11;1631282;88;25670;-76
2022/08/16 02:11:09;;;;;;;19.80;17.75;;;;;;;20.97;88.83;99600.64;1631275;88;28101;-76
2022/08/16 02:13:39;;;;;;;20.90;17.37;;;;;;;20.94;88.96;99593.78;1631190;88;25582;-76
2022/08/16 02:16:05;;;;;;;18.75;16.85;;;;;;;20.89;88.96;99590.27;1631355;87;25590;-76
2022/08/16 02:18:32;;;;;;;19.45;17.42;;;;;;;20.86;88.79;99586.94;1631321;88;25610;-76
2022/08/16 02:20:59;;;;;;;19.65;16.45;;;;;;;20.83;89.03;99579.48;1631245;88;25409;-76
2022/08/16 02:23:25;;;;;;;18.35;16.42;;;;;;;20.80;89.02;99578.11;1631203;88;28054;-76
2022/08/16 02:25:51;;;;;;;18.82;16.82;;;;;;;20.78;89.32;99576.36;1631204;88;25827;-76
2022/08/16 02:28:18;;;;;;;21.02;16.40;;;;;;;20.76;89.45;99586.37;1631283;88;25694;-76
2022/08/16 02:30:45;;;;;;;19.10;16.32;;;;;;;20.73;89.46;99589.13;1631265;88;25707;-76
2022/08/16 02:33:13;;;;;;;19.62;17.52;;;;;;;20.70;89.34;99582.44;1631285;88;25416;-76
2022/08/16 02:35:39;;;;;;;19.30;16.02;;;;;;;20.69;89.69;99589.91;1631168;88;27348;-77
2022/08/16 02:38:06;;;;;;;19.80;16.87;;;;;;;20.68;89.54;99584.80;1631154;88;25580;-76
2022/08/16 02:40:33;;;;;;;19.15;17.10;;;;;;;20.66;89.65;99582.45;1631258;88;25579;-76
2022/08/16 02:42:59;;;;;;;19.27;17.37;;;;;;;20.64;89.65;99578.55;1631347;88;26234;-76
2022/08/16 02:45:27;;;;;;;18.92;17.02;;;;;;;20.63;89.63;99582.45;1631437;88;25684;-75
2022/08/16 02:47:54;;;;;;;19.95;17.73;;;;;;;20.61;89.81;99587.54;1631356;88;27510;-76
2022/08/16 02:50:22;;;;;;;19.95;17.82;;;;;;;20.57;89.69;99585.37;1631301;88;25797;-76
2022/08/16 02:52:48;;;;;;;18.37;16.57;;;;;;;20.53;89.68;99583.43;1631442;88;25598;-76
2022/08/16 02:55:15;;;;;;;19.62;16.95;;;;;;;20.50;89.75;99584.21;1631433;88;25708;-76
2022/08/16 02:57:41;;;;;;;20.40;16.82;;;;;;;20.48;89.75;99582.45;1631342;88;25649;-77
2022/08/16 03:00:12;;;;;;;19.55;16.93;;;;;;;20.46;89.88;99585.38;1631321;88;26943;-76
2022/08/16 03:02:40;;;;;;;25.48;17.40;;;;;;;20.43;90.14;99591.66;1605751;88;25671;-76
2022/08/16 03:05:10;;;;;;;18.82;16.95;;;;;;;20.41;90.34;99586.55;1631677;88;25666;-76
2022/08/16 03:07:36;;;;;;;20.02;17.80;;;;;;;20.40;90.34;99595.98;1631356;88;26450;-76
2022/08/16 03:10:07;;;;;;;19.32;17.27;;;;;;;20.40;90.48;99591.87;1631406;88;25732;-75
2022/08/16 03:12:34;;;;;;;19.85;17.23;;;;;;;20.41;90.75;99589.30;1631464;88;27409;-76
2022/08/16 03:15:00;;;;;;;18.32;16.45;;;;;;;20.42;91.16;99594.23;1631403;88;25475;-76
2022/08/16 03:17:26;;;;;;;19.85;17.57;;;;;;;20.41;91.23;99587.16;1605859;88;25637;-76
2022/08/16 03:19:52;;;;;;;20.72;17.57;;;;;;;20.41;91.09;99596.16;1631384;88;26281;-76
2022/08/16 03:22:21;;;;;;;19.67;17.32;;;;;;;20.40;91.25;99590.50;1631495;88;25376;-76
2022/08/16 03:24:47;;;;;;;20.08;17.50;;;;;;;20.40;91.21;99591.87;1631346;88;27391;-76
2022/08/16 03:27:13;;;;;;;21.77;17.37;;;;;;;20.41;91.24;99584.41;1631214;88;25483;-76
2022/08/16 03:29:39;;;;;;;20.90;17.90;;;;;;;20.42;91.50;99581.27;1631332;88;25649;-76
2022/08/16 03:32:06;;;;;;;19.52;16.67;;;;;;;20.42;91.77;99577.75;1631360;88;25602;-76
2022/08/16 03:34:32;;;;;;;20.08;17.98;;;;;;;20.43;91.67;99579.30;1631386;88;25523;-76
2022/08/16 03:36:59;;;;;;;19.62;17.80;;;;;;;20.43;91.82;99580.11;1631376;88;27928;-76
2022/08/16 03:39:27;;;;;;;20.80;17.85;;;;;;;20.43;91.82;99581.48;1631272;88;25833;-76
2022/08/16 03:41:53;;;;;;;21.02;18.05;;;;;;;20.44;92.00;99583.63;1631366;88;25638;-76
2022/08/16 03:44:21;;;;;;;20.55;18.45;;;;;;;20.44;91.98;99592.64;1631319;88;26312;-76
2022/08/16 03:46:47;;;;;;;21.45;18.52;;;;;;;20.45;92.02;99593.42;1631358;88;25548;-76
2022/08/16 03:49:14;;;;;;;20.57;18.10;;;;;;;20.44;92.19;99594.02;1631381;88;27363;-75
2022/08/16 03:51:42;;;;;;;22.32;18.50;;;;;;;20.45;92.23;99595.59;1631207;88;25687;-76
2022/08/16 03:54:09;;;;;;;21.57;19.15;;;;;;;20.47;92.22;99606.97;1631473;88;25433;-77
2022/08/16 03:56:35;;;;;;;20.85;18.30;;;;;;;20.48;92.27;99603.63;1631222;86;25694;-76
2022/08/16 03:59:01;;;;;;;20.45;18.35;;;;;;;20.49;92.34;99607.95;1631387;88;25472;-76
2022/08/16 04:01:27;;;;;;;25.20;18.92;;;;;;;20.51;92.41;99610.48;1631334;88;27356;-76
2022/08/16 04:03:54;;;;;;;21.07;18.92;;;;;;;20.51;92.58;99606.37;1631265;88;25446;-76
2022/08/16 04:06:20;;;;;;;21.23;18.17;;;;;;;20.52;92.49;99617.56;1631460;88;25407;-76
2022/08/16 04:08:47;;;;;;;25.02;19.92;;;;;;;20.54;92.53;99610.30;1631312;88;25651;-76
2022/08/16 04:11:14;;;;;;;21.97;18.75;;;;;;;20.56;92.61;99611.28;1631434;88;25625;-76
2022/08/16 04:13:40;;;;;;;20.15;17.92;;;;;;;20.58;92.78;99617.17;1631370;88;26876;-76
2022/08/16 04:16:08;;;;;;;25.88;22.42;;;;;;;20.59;92.86;99614.63;1631267;88;25641;-76
2022/08/16 04:18:37;;;;;;;20.92;18.25;;;;;;;20.59;92.85;99616.77;1631318;88;25501;-76
2022/08/16 04:21:03;;;;;;;18.95;16.97;;;;;;;20.63;92.93;99619.55;1631325;87;25869;-77
2022/08/16 04:23:29;;;;;;;19.17;17.37;;;;;;;20.64;92.88;99621.13;1631434;88;25618;-76
2022/08/16 04:25:55;;;;;;;20.92;18.73;;;;;;;20.65;92.85;99620.73;1631419;88;28041;-76
2022/08/16 04:28:21;;;;;;;20.32;18.02;;;;;;;20.68;92.83;99619.15;1631311;88;25450;-76
2022/08/16 04:30:47;;;;;;;20.32;18.27;;;;;;;20.69;92.88;99617.38;1631411;88;25579;-76
2022/08/16 04:33:14;;;;;;;20.45;18.40;;;;;;;20.71;92.98;99616.99;1631341;88;25679;-77
2022/08/16 04:35:40;;;;;;;23.95;18.52;;;;;;;20.74;93.02;99618.16;1631363;88;25245;-76
2022/08/16 04:38:06;;;;;;;19.85;17.75;;;;;;;20.76;93.12;99622.09;1631351;87;27607;-76
2022/08/16 04:40:32;;;;;;;20.48;18.07;;;;;;;20.79;93.28;99623.25;1631222;88;25420;-76
2022/08/16 04:43:00;;;;;;;23.12;19.12;;;;;;;20.82;93.39;99622.47;1631374;88;25474;-76
2022/08/16 04:45:27;;;;;;;21.73;19.42;;;;;;;20.85;93.20;99626.58;1631273;88;25687;-76
2022/08/16 04:47:53;;;;;;;33.38;19.52;;;;;;;20.88;93.29;99622.27;1631235;88;25647;-77
2022/08/16 04:50:23;;;;;;;21.12;18.82;;;;;;;20.92;93.49;99623.04;1631286;88;27442;-77
2022/08/16 04:52:50;;;;;;;20.88;18.60;;;;;;;20.98;93.32;99626.19;1631213;88;25654;-76
2022/08/16 04:55:21;;;;;;;20.72;18.55;;;;;;;21.02;93.79;99629.11;1631308;88;25614;-76
2022/08/16 04:57:51;;;;;;;23.80;19.50;;;;;;;21.07;93.89;99631.45;1631232;88;25699;-77
2022/08/16 05:00:24;;;;;;;22.48;19.48;;;;;;;21.14;94.11;99634.78;1631278;88;25418;-76
2022/08/16 05:02:54;;;;;;;21.00;18.37;;;;;;;21.20;94.37;99630.45;1631255;88;28106;-77
2022/08/16 05:05:21;;;;;;;21.60;19.17;;;;;;;;;;1631229;88;25486;-77
2022/08/16 05:07:48;;;;;;;22.73;18.95;;;;;;;21.34;93.80;99629.62;1605576;88;25663;-77
2022/08/16 05:10:15;;;;;;;21.50;19.40;;;;;;;21.41;94.14;99631.56;1631196;88;26659;-77
2022/08/16 05:12:41;;;;;;;21.17;17.45;;;;;;;21.48;94.26;99628.03;1631287;88;25424;-77
2022/08/16 05:15:10;;;;;;;20.65;18.45;;;;;;;21.55;94.40;99635.65;1631271;88;27423;-77
2022/08/16 05:17:37;;;;;;;22.30;19.37;;;;;;;21.63;94.00;99633.66;1631310;88;25773;-77
2022/08/16 05:20:09;;;;;;;21.90;18.82;;;;;;;21.77;94.21;99647.94;1631270;88;25447;-77
2022/08/16 05:22:37;;;;;;;24.75;18.42;;;;;;;21.77;93.61;99641.06;1631242;88;25614;-77
2022/08/16 05:25:06;;;;;;;25.08;19.62;;;;;;;21.83;93.53;99645.75;1631526;88;25496;-76
2022/08/16 05:27:32;;;;;;;24.65;18.77;;;;;;;21.90;93.48;99642.78;1631365;88;27345;-76
2022/08/16 05:29:58;;;;;;;19.35;17.37;;;;;;;21.96;93.32;99644.71;1631170;88;25502;-76
2022/08/16 05:32:24;;;;;;;20.92;17.62;;;;;;;22.05;93.29;99653.90;1631270;88;25347;-77
2022/08/16 05:34:50;;;;;;;25.32;18.70;;;;;;;22.12;93.03;99650.32;1631221;88;25644;-77
2022/08/16 05:37:17;;;;;;;20.55;18.45;;;;;;;22.20;92.92;99647.69;1631302;88;25658;-77
2022/08/16 05:39:43;;;;;;;20.55;17.42;;;;;;;22.27;92.32;99650.98;1631265;88;28103;-78
2022/08/16 05:42:09;;;;;;;23.00;18.15;;;;;;;22.31;91.90;99651.80;1631227;88;25459;-78
2022/08/16 05:44:36;;;;;;;21.42;17.00;;;;;;;22.37;91.67;99652.91;1631334;88;25578;-76
2022/08/16 05:47:02;;;;;;;19.50;16.50;;;;;;;22.43;91.37;99653.28;1631262;88;25719;-77
2022/08/16 05:49:31;;;;;;;20.37;17.05;;;;;;;22.47;90.89;99658.16;1631278;88;25563;-76
2022/08/16 05:51:58;;;;;;;22.35;17.92;;;;;;;22.52;90.78;99659.11;1631288;88;27351;-77
2022/08/16 05:54:27;;;;;;;20.45;17.62;;;;;;;22.59;90.69;99663.78;1631245;88;25426;-78
2022/08/16 05:56:55;;;;;;;18.98;16.30;;;;;;;22.63;90.33;99659.02;1631445;88;25925;-77
2022/08/16 05:59:22;;;;;;;20.93;15.70;;;;;;;22.68;89.80;99655.81;1631424;88;25615;-77
2022/08/16 06:01:50;;;;;;;19.17;16.02;;;;;;;22.71;89.85;99657.19;1631256;88;25508;-77
2022/08/16 06:04:19;;;;;;;18.32;16.02;;;;;;;22.76;89.78;99657.33;1631247;88;27578;-77
2022/08/16 06:06:46;;;;;;;17.80;15.78;;;;;;;22.83;90.28;99651.77;1631323;88;29151;-77
2022/08/16 06:09:15;;;;;;;25.77;16.87;;;;;;;22.93;90.22;99646.75;1631407;88;25607;-78
2022/08/16 06:11:42;;;;;;;;;;;;;;;23.03;90.23;99647.04;1633628;88;25706;-77
2022/08/16 06:14:10;;;;;;;16.75;14.98;;;;;;;23.15;89.75;99654.05;1631319;88;25581;-77
2022/08/16 06:16:36;;;;;;;22.82;16.25;;;;;;;23.25;89.35;99652.54;1631352;88;27401;-77
2022/08/16 06:19:03;;;;;;;18.42;16.07;;;;;;;23.40;89.39;99649.64;1631225;88;25576;-77
2022/08/16 06:21:29;;;;;;;22.55;16.00;;;;;;;23.54;88.76;99649.45;1631247;88;25421;-77
2022/08/16 06:23:56;;;;;;;17.48;15.63;;;;;;;23.73;88.74;99644.49;1631200;88;25647;-77
2022/08/16 06:26:23;;;;;;;18.17;15.18;;;;;;;23.96;88.78;99647.97;1631278;88;25623;-78
2022/08/16 06:28:49;;;;;;;16.05;13.90;;;;;;;24.19;88.22;99648.61;1631206;88;27349;-78
2022/08/16 06:31:16;;;;;;;16.55;14.03;;;;;;;24.41;86.30;99647.08;1631229;88;25404;-77
2022/08/16 06:33:43;;;;;;;17.25;13.60;;;;;;;24.60;85.30;99652.55;1631274;88;25558;-78
2022/08/16 06:36:12;;;;;;;14.75;12.95;;;;;;;24.73;83.45;99658.23;1631212;88;25708;-78
2022/08/16 06:38:38;;;;;;;27.87;19.80;;;;;;;24.86;83.09;99650.13;1631438;88;25704;-78
2022/08/16 06:41:07;;;;;;;16.95;14.50;;;;;;;25.00;83.21;99652.47;1631246;88;26934;-78
2022/08/16 06:43:34;;;;;;;15.15;13.65;;;;;;;25.11;81.32;99650.27;1631204;88;25649;-78
2022/08/16 06:46:03;;;;;;;20.72;13.95;;;;;;;25.22;80.27;99657.00;1631277;88;25477;-78
2022/08/16 06:48:32;;;;;;;16.73;13.25;;;;;;;25.25;79.31;99649.21;1631216;88;25616;-78
2022/08/16 06:50:58;;;;;;;15.08;12.37;;;;;;;25.27;78.13;99646.85;1630817;88;25416;-78
2022/08/16 06:53:25;;;;;;;16.55;12.37;;;;;;;25.30;78.04;99648.74;1631343;88;27473;-78
2022/08/16 06:55:57;;;;;;;13.55;12.20;;;;;;;25.36;77.48;99647.05;1631144;88;25400;-78
2022/08/16 06:58:23;;;;;;;17.70;12.65;;;;;;;25.41;76.63;99645.78;1628484;86;25536;-78
2022/08/16 07:00:49;;;;;;;14.87;12.70;;;;;;;25.47;76.10;99652.36;1626359;88;25598;-78
2022/08/16 07:03:15;;;;;;;16.10;12.70;;;;;;;25.51;75.85;99652.48;1626409;88;25478;-78
2022/08/16 07:05:42;;;;;;;18.82;12.58;;;;;;;25.59;76.08;99662.02;1608065;88;27369;-78
2022/08/16 07:08:10;;;;;;;16.75;13.10;;;;;;;25.66;75.57;99653.55;1626379;88;25414;-78
2022/08/16 07:10:37;;;;;;;17.00;13.25;;;;;;;25.78;75.71;99657.66;1627186;88;25485;-78
2022/08/16 07:13:04;;;;;;;15.40;12.63;;;;;;;25.89;74.92;99651.30;1626394;88;26183;-78
2022/08/16 07:15:30;;;;;;;13.80;11.93;;;;;;;26.00;73.87;99658.00;1626461;88;25419;-78
2022/08/16 07:17:58;;;;;;;15.63;12.58;;;;;;;26.06;73.75;99644.59;1626402;88;27389;-78
2022/08/16 07:20:27;;;;;;;15.98;11.90;;;;;;;26.28;74.19;99646.88;1626506;88;25621;-78
2022/08/16 07:22:54;;;;;;;16.63;12.53;;;;;;;26.56;74.33;99643.23;1626658;88;25668;-78
2022/08/16 07:25:22;;;;;;;17.05;13.38;;;;;;;26.81;73.05;99634.31;1626377;88;25651;-78
2022/08/16 07:27:48;;;;;;;21.60;12.93;;;;;;;27.05;72.81;99639.02;1626550;88;25478;-78
2022/08/16 07:30:17;;;;;;;15.15;11.73;;;;;;;27.28;72.18;99638.62;1626537;88;28107;-78
2022/08/16 07:32:43;;;;;;;17.10;12.63;;;;;;;27.49;71.37;99642.80;1626592;88;25656;-78
2022/08/16 07:35:09;;;;;;;12.47;11.28;;;;;;;27.70;70.48;99646.35;1626520;88;25598;-78
2022/08/16 07:37:36;;;;;;;16.87;12.50;;;;;;;27.86;69.87;99639.14;1626494;88;25703;-78
2022/08/16 07:40:05;;;;;;;12.93;11.53;;;;;;;28.04;69.38;99644.16;1626542;88;25438;-78
2022/08/16 07:42:31;;;;;;;16.77;11.53;;;;;;;28.29;68.97;99644.77;1626538;88;27389;-76
2022/08/16 07:44:57;;;;;;;14.47;12.10;;;;;;;28.59;69.15;99642.03;1626424;88;25823;-77
2022/08/16 07:47:24;;;;;;;15.40;11.75;;;;;;;28.97;68.72;99634.80;1626509;88;25455;-79
2022/08/16 07:49:51;;;;;;;15.03;10.95;;;;;;;29.32;67.95;99641.72;1626495;88;25654;-77
2022/08/16 07:52:17;;;;;;;13.88;11.50;;;;;;;29.58;66.69;99645.14;1626520;88;25632;-76
2022/08/16 07:54:44;;;;;;;14.85;10.85;;;;;;;29.86;65.83;99644.69;1626486;88;28035;-78
2022/08/16 07:57:11;;;;;;;13.15;11.80;;;;;;;30.12;63.56;99645.87;1626529;88;25500;-77
2022/08/16 07:59:37;;;;;;;13.50;11.15;;;;;;;30.33;63.39;99648.43;1632981;87;26337;-77
2022/08/16 08:02:04;;;;;;;14.15;11.35;;;;;;;30.61;63.02;99640.14;1633855;87;25321;-77
2022/08/16 08:04:34;;;;;;;12.65;10.75;;;;;;;30.93;62.45;99650.56;1633916;87;25435;-77
2022/08/16 08:07:01;;;;;;;15.72;11.00;;;;;;;31.09;61.23;99649.66;1634248;87;27412;-77
2022/08/16 08:09:28;;;;;;;12.05;10.58;;;;;;;31.30;60.24;99652.74;1633541;87;25583;-79
2022/08/16 08:11:55;;;;;;;12.50;10.35;;;;;;;31.50;59.60;99649.48;1633516;87;25568;-79
2022/08/16 08:14:21;;;;;;;16.17;13.48;;;;;;;31.49;58.43;99651.31;1633457;87;25709;-77
2022/08/16 08:16:49;;;;;;;14.07;10.90;;;;;;;31.49;58.43;99648.52;1633557;87;25543;-78
2022/08/16 08:19:15;;;;;;;16.12;10.38;;;;;;;31.60;58.58;99646.82;1633682;87;27345;-78
2022/08/16 08:21:42;;;;;;;11.28;9.83;;;;;;;31.87;57.61;99647.19;1633522;87;25568;-78
2022/08/16 08:24:11;;;;;;;13.53;10.75;;;;;;;32.01;56.66;99650.09;1633573;87;25404;-78
2022/08/16 08:26:37;;;;;;;12.95;10.75;;;;;;;31.91;55.94;99659.77;1633716;87;34878;-78
2022/08/16 08:29:04;;;;;;;12.82;10.30;;;;;;;31.77;55.83;99661.21;1633677;87;25525;-78
2022/08/16 08:31:30;;;;;;;15.45;11.43;;;;;;;31.65;55.57;99658.77;1633618;87;27353;-78
2022/08/16 08:33:57;;;;;;;11.80;10.38;;;;;;;31.50;55.56;99659.84;1633338;87;25281;-78
2022/08/16 08:36:27;;;;;;;19.02;10.70;;;;;;;31.34;55.03;99653.97;1633456;87;25655;-77
2022/08/16 08:38:53;;;;;;;12.35;10.78;;;;;;;31.23;55.82;99654.46;1633625;87;25670;-77
2022/08/16 08:41:20;;;;;;;12.35;11.05;;;;;;;31.12;56.01;99653.52;1607577;87;25650;-78
2022/08/16 08:43:46;;;;;;;13.88;10.45;;;;;;;31.05;56.21;99656.63;1633723;87;28089;-79
2022/08/16 08:46:13;;;;;;;14.33;10.48;;;;;;;30.98;56.18;99659.11;1633777;87;25581;-79
2022/08/16 08:48:39;;;;;;;14.53;10.13;;;;;;;30.93;55.94;99660.33;1633864;87;25433;-79
2022/08/16 08:51:08;;;;;;;11.85;10.70;;;;;;;30.84;55.84;99671.64;1633844;87;25567;-79
2022/08/16 08:53:37;;;;;;;11.65;10.25;;;;;;;30.68;55.74;99675.52;1633915;87;25570;-79
2022/08/16 08:56:05;;;;;;;12.68;10.78;;;;;;;30.58;55.82;99682.31;1633911;87;28142;-79
2022/08/16 08:58:35;;;;;;;13.03;11.22;;;;;;;30.44;56.07;99680.86;1632923;87;25850;-79
2022/08/16 09:01:04;;;;;;;14.15;11.48;;;;;;;30.33;56.50;99679.11;1631746;88;25591;-78
2022/08/16 09:03:30;;;;;;;14.53;11.73;;;;;;;30.19;56.71;99670.70;1631736;88;26476;-78
2022/08/16 09:05:57;;;;;;;13.43;12.15;;;;;;;30.09;56.80;99673.30;1631817;88;25650;-79
2022/08/16 09:08:23;;;;;;;14.38;11.40;;;;;;;29.97;57.27;99686.10;1631802;88;27873;-78
2022/08/16 09:10:57;;;;;;;13.43;11.53;;;;;;;29.86;57.55;99681.55;1631685;88;25715;-78
2022/08/16 09:13:25;;;;;;;15.80;11.48;;;;;;;29.74;57.19;99677.58;1631400;88;25576;-78
2022/08/16 09:15:54;;;;;;;13.38;11.40;;;;;;;29.61;57.23;99688.20;1631367;88;25743;-78
2022/08/16 09:18:22;;;;;;;13.25;11.95;;;;;;;29.50;57.45;99679.44;1631356;88;25422;-78
2022/08/16 09:20:54;;;;;;;15.03;12.45;;;;;;;29.40;57.63;99685.56;1631488;88;27553;-78
2022/08/16 09:23:24;;;;;;;15.98;12.03;;;;;;;29.34;57.99;99678.27;1631294;88;25616;-78
2022/08/16 09:25:51;;;;;;;13.68;11.73;;;;;;;29.32;58.41;99682.09;1631310;88;25400;-78
2022/08/16 09:28:18;;;;;;;12.85;11.53;;;;;;;29.31;58.43;99686.89;1631350;88;25706;-78
2022/08/16 09:30:44;;;;;;;12.78;10.85;;;;;;;29.32;58.40;99687.67;1631412;88;25530;-78
2022/08/16 09:33:17;;;;;;;16.20;12.25;;;;;;;29.29;57.91;99691.38;1631381;88;27348;-78
2022/08/16 09:35:42;;;;;;;12.58;11.18;;;;;;;29.21;57.69;99687.44;1631292;87;25612;-78
2022/08/16 09:38:08;;;;;;;18.05;11.43;;;;;;;29.12;57.59;99688.73;1631457;88;25635;-78
2022/08/16 09:40:35;;;;;;;19.30;15.85;;;;;;;29.05;57.47;99694.55;1631228;88;25633;-78
2022/08/16 09:43:03;;;;;;;17.25;14.70;;;;;;;28.95;57.20;99697.09;1631334;88;25416;-79
2022/08/16 09:45:31;;;;;;;22.32;11.88;;;;;;;28.87;57.39;99692.38;1631432;88;27353;-78
2022/08/16 09:47:58;;;;;;;12.70;11.43;;;;;;;28.82;57.66;99697.12;1631307;88;25410;-78
2022/08/16 09:50:28;;;;;;;12.75;11.45;;;;;;;28.80;58.27;99691.23;1631304;88;25505;-78
2022/08/16 09:52:54;;;;;;;12.68;11.38;;;;;;;28.80;58.83;99694.01;1631285;88;25671;-79
2022/08/16 09:55:21;;;;;;;14.53;11.60;;;;;;;28.80;58.54;99691.23;1631524;88;25637;-79
2022/08/16 09:57:50;;;;;;;13.53;11.45;;;;;;;28.81;58.62;99692.77;1631571;88;25848;-79
2022/08/16 10:00:16;;;;;;;14.50;11.78;;;;;;;28.87;58.93;99697.94;1626985;88;25574;-79
2022/08/16 10:02:43;;;;;;;13.93;11.05;;;;;;;28.91;58.09;99701.98;1626714;88;25607;-79
2022/08/16 10:05:10;;;;;;;14.83;11.88;;;;;;;28.89;58.01;99705.22;1626607;88;26352;-79
2022/08/16 10:07:36;;;;;;;14.80;11.48;;;;;;;28.90;57.99;99703.23;1626709;88;25489;-78
2022/08/16 10:10:05;;;;;;;14.73;11.50;;;;;;;28.92;58.39;99706.34;1626733;88;27335;-78
2022/08/16 10:15:24;;;;;;;12.75;11.53;;;;;;;28.96;58.50;99708.38;1626658;88;25418;-79
2022/08/16 10:17:54;;;;;;;15.32;11.43;;;;;;;28.96;58.59;99715.33;1608655;88;25631;-77
2022/08/16 10:20:24;;;;;;;13.95;11.75;;;;;;;28.97;58.50;99722.47;1626662;88;25651;-79
2022/08/16 10:22:51;;;;;;;12.63;10.82;;;;;;;28.93;58.68;99729.55;1627012;88;27359;-78
2022/08/16 10:25:19;;;;;;;18.57;11.48;;;;;;;28.88;58.76;99730.12;1627656;88;25489;-78
2022/08/16 10:27:47;;;;;;;14.55;12.18;;;;;;;28.84;58.58;99730.83;1626948;88;25421;-79
2022/08/16 10:30:16;;;;;;;13.65;11.65;;;;;;;28.78;58.85;99738.98;1626749;88;26051;-78
2022/08/16 10:32:44;;;;;;;14.05;11.80;;;;;;;28.75;58.73;99732.14;1626848;88;25586;-77
2022/08/16 10:35:17;;;;;;;15.05;11.60;;;;;;;28.68;58.69;99737.33;1626858;88;28140;-78
2022/08/16 10:37:45;;;;;;;12.65;11.38;;;;;;;28.60;58.98;99747.13;1627049;88;25631;-79
2022/08/16 10:40:13;;;;;;;14.70;12.40;;;;;;;28.53;59.09;99752.27;1627252;88;25609;-78
2022/08/16 10:42:40;;;;;;;14.65;12.25;;;;;;;28.44;59.33;99747.38;1627131;88;25639;-78
2022/08/16 10:45:08;;;;;;;14.10;12.68;;;;;;;28.42;60.13;99752.61;1626987;88;25236;-78
2022/08/16 10:47:35;;;;;;;15.28;12.35;;;;;;;28.40;60.37;99751.48;1626891;88;27372;-78
2022/08/16 10:50:05;;;;;;;23.70;20.43;;;;;;;28.39;60.48;99756.89;1626633;88;25665;-80
